LavenderCAM.net
Leatherhead Weather
 
 





Member of StrikeStar EU

Aviation weather for

London Heathrow (EGLL) and London Gatwick (EGKK)



London Heathrow (EGLL) METAR / Surface Actual
London / Heathrow Airport, United Kingdom (EGLL) 51-29N 000-27W 0M
Apr 22, 2018 - 05:50 AM EDT / 2018.04.22 0950 UTC
Wind: from the SW (220 degrees) at 12 MPH (10 KT) (direction variable):0
Visibility: greater than 7 mile(s):0
Temperature: 68 F (20 C)
Dew Point: 55 F (13 C)
Relative Humidity: 64%
Pressure (altimeter): 29.80 in. Hg (1009 hPa)
ob: EGLL 220950Z AUTO 22010KT 190V250 9999 NCD 20/13 Q1009 NOSIG
cycle: 10
London Heathrow (EGLL) TAF / Forecast
2018/04/22 06:16
TAF EGLL 220458Z 2206/2312 19008KT 4000 BR FEW045 
      BECMG 2207/2209 9999 NSW PROB30 
      TEMPO 2213/2218 7000 SHRA 
      BECMG 2214/2217 26010KT


London Gatwick (EGKK) METAR / Surface Actual
London / Gatwick Airport, United Kingdom (EGKK) 51-09N 000-11W 0M
Apr 22, 2018 - 05:50 AM EDT / 2018.04.22 0950 UTC
Wind: from the SSW (210 degrees) at 10 MPH (9 KT) (direction variable):0
Visibility: greater than 7 mile(s):0
Temperature: 68 F (20 C)
Dew Point: 55 F (13 C)
Relative Humidity: 64%
Pressure (altimeter): 29.80 in. Hg (1009 hPa)
ob: EGKK 220950Z 21009KT 170V230 CAVOK 20/13 Q1009
cycle: 10
London Gatwick (EGKK) TAF / Forecast
2018/04/22 06:16
TAF EGKK 220453Z 2206/2312 VRB03KT 4000 BR FEW045 
      BECMG 2206/2209 22010KT 9999 NSW PROB30 
      TEMPO 2214/2217 8000 SHRA 
      BECMG 2220/2223 28008KT PROB30 
      TEMPO 2302/2308 BKN012